sensor_id;sensor_type;location;lat;lon;timestamp;P1;durP1;ratioP1;P2;durP2;ratioP2
57832;SDS011;43667;53.036;6.740;2024-02-26T00:01:40;26.75;;;18.15;;
57832;SDS011;43667;53.036;6.740;2024-02-26T00:04:08;24.95;;;17.38;;
57832;SDS011;43667;53.036;6.740;2024-02-26T00:06:34;26.05;;;17.92;;
57832;SDS011;43667;53.036;6.740;2024-02-26T00:09:00;24.95;;;17.02;;
57832;SDS011;43667;53.036;6.740;2024-02-26T00:11:30;26.13;;;18.08;;
57832;SDS011;43667;53.036;6.740;2024-02-26T00:13:56;27.45;;;17.95;;
57832;SDS011;43667;53.036;6.740;2024-02-26T00:16:23;27.92;;;17.98;;
57832;SDS011;43667;53.036;6.740;2024-02-26T00:18:49;30.17;;;18.95;;
57832;SDS011;43667;53.036;6.740;2024-02-26T00:21:15;31.00;;;18.33;;
57832;SDS011;43667;53.036;6.740;2024-02-26T00:23:41;32.35;;;19.10;;
57832;SDS011;43667;53.036;6.740;2024-02-26T00:26:07;27.17;;;18.15;;
57832;SDS011;43667;53.036;6.740;2024-02-26T00:28:34;29.48;;;19.65;;
57832;SDS011;43667;53.036;6.740;2024-02-26T00:31:00;28.92;;;18.65;;
57832;SDS011;43667;53.036;6.740;2024-02-26T00:33:26;30.08;;;19.08;;
57832;SDS011;43667;53.036;6.740;2024-02-26T00:35:52;29.27;;;19.45;;
57832;SDS011;43667;53.036;6.740;2024-02-26T00:38:18;31.63;;;19.33;;
57832;SDS011;43667;53.036;6.740;2024-02-26T00:40:44;32.03;;;19.85;;
57832;SDS011;43667;53.036;6.740;2024-02-26T00:43:10;30.77;;;19.73;;
57832;SDS011;43667;53.036;6.740;2024-02-26T00:45:36;34.85;;;20.75;;
57832;SDS011;43667;53.036;6.740;2024-02-26T00:48:02;35.00;;;21.35;;
57832;SDS011;43667;53.036;6.740;2024-02-26T00:50:33;37.58;;;21.45;;
57832;SDS011;43667;53.036;6.740;2024-02-26T00:53:00;39.30;;;21.25;;
57832;SDS011;43667;53.036;6.740;2024-02-26T00:55:26;40.35;;;22.30;;
57832;SDS011;43667;53.036;6.740;2024-02-26T00:57:52;40.25;;;22.30;;
57832;SDS011;43667;53.036;6.740;2024-02-26T01:00:18;38.63;;;22.83;;
57832;SDS011;43667;53.036;6.740;2024-02-26T01:02:44;43.10;;;23.38;;
57832;SDS011;43667;53.036;6.740;2024-02-26T01:05:13;45.50;;;25.25;;
57832;SDS011;43667;53.036;6.740;2024-02-26T01:07:39;48.22;;;24.92;;
57832;SDS011;43667;53.036;6.740;2024-02-26T01:10:06;47.85;;;25.65;;
57832;SDS011;43667;53.036;6.740;2024-02-26T01:12:32;48.47;;;26.92;;
57832;SDS011;43667;53.036;6.740;2024-02-26T01:14:59;54.28;;;28.05;;
57832;SDS011;43667;53.036;6.740;2024-02-26T01:17:25;50.20;;;28.55;;
57832;SDS011;43667;53.036;6.740;2024-02-26T01:19:51;50.85;;;28.90;;
57832;SDS011;43667;53.036;6.740;2024-02-26T01:22:18;54.15;;;29.63;;
57832;SDS011;43667;53.036;6.740;2024-02-26T01:24:44;54.28;;;30.65;;
57832;SDS011;43667;53.036;6.740;2024-02-26T01:27:10;55.83;;;31.90;;
57832;SDS011;43667;53.036;6.740;2024-02-26T01:29:37;59.33;;;33.85;;
57832;SDS011;43667;53.036;6.740;2024-02-26T01:32:03;60.17;;;34.55;;
57832;SDS011;43667;53.036;6.740;2024-02-26T01:34:30;65.50;;;34.22;;
57832;SDS011;43667;53.036;6.740;2024-02-26T01:36:56;56.35;;;33.80;;
57832;SDS011;43667;53.036;6.740;2024-02-26T01:39:23;57.58;;;32.83;;
57832;SDS011;43667;53.036;6.740;2024-02-26T01:41:49;60.35;;;34.10;;
57832;SDS011;43667;53.036;6.740;2024-02-26T01:44:15;53.58;;;32.75;;
57832;SDS011;43667;53.036;6.740;2024-02-26T01:46:41;59.95;;;34.13;;
57832;SDS011;43667;53.036;6.740;2024-02-26T01:49:08;67.53;;;36.55;;
57832;SDS011;43667;53.036;6.740;2024-02-26T01:51:34;72.60;;;38.25;;
57832;SDS011;43667;53.036;6.740;2024-02-26T01:54:01;69.53;;;37.15;;
57832;SDS011;43667;53.036;6.740;2024-02-26T01:56:28;80.38;;;40.33;;
57832;SDS011;43667;53.036;6.740;2024-02-26T01:58:57;79.05;;;40.72;;
57832;SDS011;43667;53.036;6.740;2024-02-26T02:01:26;86.18;;;43.80;;
57832;SDS011;43667;53.036;6.740;2024-02-26T02:03:53;89.03;;;45.55;;
57832;SDS011;43667;53.036;6.740;2024-02-26T02:06:19;89.18;;;46.70;;
57832;SDS011;43667;53.036;6.740;2024-02-26T02:08:46;96.57;;;48.22;;
57832;SDS011;43667;53.036;6.740;2024-02-26T02:11:12;95.28;;;48.20;;
57832;SDS011;43667;53.036;6.740;2024-02-26T02:13:39;92.93;;;46.33;;
57832;SDS011;43667;53.036;6.740;2024-02-26T02:16:06;97.03;;;45.83;;
57832;SDS011;43667;53.036;6.740;2024-02-26T02:18:32;88.55;;;44.53;;
57832;SDS011;43667;53.036;6.740;2024-02-26T02:20:59;88.97;;;46.33;;
57832;SDS011;43667;53.036;6.740;2024-02-26T02:23:25;83.53;;;45.03;;
57832;SDS011;43667;53.036;6.740;2024-02-26T02:25:52;81.80;;;44.85;;
57832;SDS011;43667;53.036;6.740;2024-02-26T02:28:20;84.43;;;45.13;;
57832;SDS011;43667;53.036;6.740;2024-02-26T02:30:46;82.85;;;43.10;;
57832;SDS011;43667;53.036;6.740;2024-02-26T02:33:12;70.50;;;40.53;;
57832;SDS011;43667;53.036;6.740;2024-02-26T02:35:40;69.93;;;40.33;;
57832;SDS011;43667;53.036;6.740;2024-02-26T02:38:06;69.72;;;40.00;;
57832;SDS011;43667;53.036;6.740;2024-02-26T02:40:32;62.72;;;38.67;;
57832;SDS011;43667;53.036;6.740;2024-02-26T02:42:58;64.45;;;38.75;;
57832;SDS011;43667;53.036;6.740;2024-02-26T02:45:25;67.18;;;38.03;;
57832;SDS011;43667;53.036;6.740;2024-02-26T02:47:51;55.88;;;35.35;;
57832;SDS011;43667;53.036;6.740;2024-02-26T02:50:17;61.28;;;36.92;;
57832;SDS011;43667;53.036;6.740;2024-02-26T02:52:43;65.22;;;36.60;;
57832;SDS011;43667;53.036;6.740;2024-02-26T02:55:09;67.82;;;38.90;;
57832;SDS011;43667;53.036;6.740;2024-02-26T02:57:35;67.20;;;38.85;;
57832;SDS011;43667;53.036;6.740;2024-02-26T03:00:09;63.83;;;37.22;;
57832;SDS011;43667;53.036;6.740;2024-02-26T03:02:35;72.45;;;37.78;;
57832;SDS011;43667;53.036;6.740;2024-02-26T03:05:02;59.90;;;36.28;;
57832;SDS011;43667;53.036;6.740;2024-02-26T03:07:28;65.75;;;38.15;;
57832;SDS011;43667;53.036;6.740;2024-02-26T03:09:54;66.78;;;37.50;;
57832;SDS011;43667;53.036;6.740;2024-02-26T03:12:20;60.88;;;34.97;;
57832;SDS011;43667;53.036;6.740;2024-02-26T03:14:46;58.35;;;34.63;;
57832;SDS011;43667;53.036;6.740;2024-02-26T03:17:13;54.75;;;32.10;;
57832;SDS011;43667;53.036;6.740;2024-02-26T03:19:39;50.97;;;32.05;;
57832;SDS011;43667;53.036;6.740;2024-02-26T03:22:05;48.38;;;30.45;;
57832;SDS011;43667;53.036;6.740;2024-02-26T03:24:31;47.03;;;28.95;;
57832;SDS011;43667;53.036;6.740;2024-02-26T03:26:57;40.30;;;26.20;;
57832;SDS011;43667;53.036;6.740;2024-02-26T03:29:23;39.15;;;26.75;;
57832;SDS011;43667;53.036;6.740;2024-02-26T03:31:49;36.65;;;25.50;;
57832;SDS011;43667;53.036;6.740;2024-02-26T03:34:15;32.40;;;22.95;;
57832;SDS011;43667;53.036;6.740;2024-02-26T03:36:42;30.80;;;22.05;;
57832;SDS011;43667;53.036;6.740;2024-02-26T03:39:08;29.27;;;20.65;;
57832;SDS011;43667;53.036;6.740;2024-02-26T03:41:34;25.83;;;18.80;;
57832;SDS011;43667;53.036;6.740;2024-02-26T03:44:00;26.25;;;19.75;;
57832;SDS011;43667;53.036;6.740;2024-02-26T03:46:26;26.40;;;19.30;;
57832;SDS011;43667;53.036;6.740;2024-02-26T03:48:52;23.85;;;18.13;;
57832;SDS011;43667;53.036;6.740;2024-02-26T03:51:19;25.08;;;17.50;;
57832;SDS011;43667;53.036;6.740;2024-02-26T03:53:45;27.15;;;19.40;;
57832;SDS011;43667;53.036;6.740;2024-02-26T03:56:11;24.88;;;19.35;;
57832;SDS011;43667;53.036;6.740;2024-02-26T03:58:40;27.58;;;19.05;;
57832;SDS011;43667;53.036;6.740;2024-02-26T04:01:07;31.77;;;20.88;;
57832;SDS011;43667;53.036;6.740;2024-02-26T04:03:34;30.55;;;21.40;;
57832;SDS011;43667;53.036;6.740;2024-02-26T04:06:00;30.52;;;20.52;;
57832;SDS011;43667;53.036;6.740;2024-02-26T04:08:26;26.98;;;19.90;;
57832;SDS011;43667;53.036;6.740;2024-02-26T04:10:52;27.00;;;17.40;;
57832;SDS011;43667;53.036;6.740;2024-02-26T04:13:18;22.27;;;16.33;;
57832;SDS011;43667;53.036;6.740;2024-02-26T04:15:44;23.23;;;16.33;;
57832;SDS011;43667;53.036;6.740;2024-02-26T04:18:11;21.35;;;14.13;;
57832;SDS011;43667;53.036;6.740;2024-02-26T04:20:37;22.85;;;14.23;;
57832;SDS011;43667;53.036;6.740;2024-02-26T04:23:04;17.67;;;13.63;;
57832;SDS011;43667;53.036;6.740;2024-02-26T04:25:30;15.93;;;13.15;;
57832;SDS011;43667;53.036;6.740;2024-02-26T04:27:56;15.07;;;12.48;;
57832;SDS011;43667;53.036;6.740;2024-02-26T04:30:22;15.13;;;12.48;;
57832;SDS011;43667;53.036;6.740;2024-02-26T04:32:48;15.35;;;11.70;;
57832;SDS011;43667;53.036;6.740;2024-02-26T04:35:14;13.30;;;11.48;;
57832;SDS011;43667;53.036;6.740;2024-02-26T04:37:40;15.52;;;12.13;;
57832;SDS011;43667;53.036;6.740;2024-02-26T04:40:07;14.30;;;11.93;;
57832;SDS011;43667;53.036;6.740;2024-02-26T04:42:33;12.57;;;10.98;;
57832;SDS011;43667;53.036;6.740;2024-02-26T04:45:00;18.10;;;11.68;;
57832;SDS011;43667;53.036;6.740;2024-02-26T04:47:26;13.15;;;10.95;;
57832;SDS011;43667;53.036;6.740;2024-02-26T04:49:52;15.10;;;11.27;;
57832;SDS011;43667;53.036;6.740;2024-02-26T04:52:18;12.50;;;10.65;;
57832;SDS011;43667;53.036;6.740;2024-02-26T04:54:44;14.60;;;10.00;;
57832;SDS011;43667;53.036;6.740;2024-02-26T04:57:10;12.00;;;10.18;;
57832;SDS011;43667;53.036;6.740;2024-02-26T04:59:36;13.40;;;10.80;;
57832;SDS011;43667;53.036;6.740;2024-02-26T05:02:03;10.20;;;9.10;;
57832;SDS011;43667;53.036;6.740;2024-02-26T05:04:29;10.40;;;9.40;;
57832;SDS011;43667;53.036;6.740;2024-02-26T05:06:55;12.93;;;9.80;;
57832;SDS011;43667;53.036;6.740;2024-02-26T05:09:21;9.57;;;8.57;;
57832;SDS011;43667;53.036;6.740;2024-02-26T05:11:48;12.18;;;8.88;;
57832;SDS011;43667;53.036;6.740;2024-02-26T05:14:14;10.18;;;9.07;;
57832;SDS011;43667;53.036;6.740;2024-02-26T05:16:40;11.20;;;9.50;;
57832;SDS011;43667;53.036;6.740;2024-02-26T05:19:06;9.68;;;8.13;;
57832;SDS011;43667;53.036;6.740;2024-02-26T05:21:32;10.48;;;8.13;;
57832;SDS011;43667;53.036;6.740;2024-02-26T05:23:58;11.00;;;8.43;;
57832;SDS011;43667;53.036;6.740;2024-02-26T05:26:25;10.55;;;7.18;;
57832;SDS011;43667;53.036;6.740;2024-02-26T05:28:51;10.32;;;7.18;;
57832;SDS011;43667;53.036;6.740;2024-02-26T05:31:18;9.48;;;7.18;;
57832;SDS011;43667;53.036;6.740;2024-02-26T05:33:44;8.30;;;6.53;;
57832;SDS011;43667;53.036;6.740;2024-02-26T05:36:10;9.30;;;6.95;;
57832;SDS011;43667;53.036;6.740;2024-02-26T05:38:36;10.07;;;7.03;;
57832;SDS011;43667;53.036;6.740;2024-02-26T05:41:02;7.35;;;6.30;;
57832;SDS011;43667;53.036;6.740;2024-02-26T05:43:29;9.30;;;7.15;;
57832;SDS011;43667;53.036;6.740;2024-02-26T05:45:55;9.43;;;6.60;;
57832;SDS011;43667;53.036;6.740;2024-02-26T05:48:21;7.82;;;6.13;;
57832;SDS011;43667;53.036;6.740;2024-02-26T05:50:47;8.95;;;6.18;;
57832;SDS011;43667;53.036;6.740;2024-02-26T05:53:14;7.63;;;6.63;;
57832;SDS011;43667;53.036;6.740;2024-02-26T05:55:40;6.68;;;6.07;;
57832;SDS011;43667;53.036;6.740;2024-02-26T05:58:06;7.70;;;6.30;;
57832;SDS011;43667;53.036;6.740;2024-02-26T06:00:32;6.47;;;5.82;;
57832;SDS011;43667;53.036;6.740;2024-02-26T06:02:58;6.40;;;5.40;;
57832;SDS011;43667;53.036;6.740;2024-02-26T06:05:24;8.10;;;6.03;;
57832;SDS011;43667;53.036;6.740;2024-02-26T06:07:51;6.82;;;5.88;;
57832;SDS011;43667;53.036;6.740;2024-02-26T06:10:17;7.63;;;6.38;;
57832;SDS011;43667;53.036;6.740;2024-02-26T06:12:46;6.50;;;5.78;;
57832;SDS011;43667;53.036;6.740;2024-02-26T06:15:12;7.32;;;5.10;;
57832;SDS011;43667;53.036;6.740;2024-02-26T06:17:38;7.40;;;5.00;;
57832;SDS011;43667;53.036;6.740;2024-02-26T06:20:04;9.30;;;5.82;;
57832;SDS011;43667;53.036;6.740;2024-02-26T06:22:31;7.28;;;5.18;;
57832;SDS011;43667;53.036;6.740;2024-02-26T06:24:57;8.48;;;5.47;;
57832;SDS011;43667;53.036;6.740;2024-02-26T06:27:24;9.55;;;5.10;;
57832;SDS011;43667;53.036;6.740;2024-02-26T06:29:50;8.00;;;5.05;;
57832;SDS011;43667;53.036;6.740;2024-02-26T06:32:16;6.97;;;5.53;;
57832;SDS011;43667;53.036;6.740;2024-02-26T06:34:42;6.95;;;5.30;;
57832;SDS011;43667;53.036;6.740;2024-02-26T06:37:08;8.85;;;5.43;;
57832;SDS011;43667;53.036;6.740;2024-02-26T06:39:34;7.57;;;5.45;;
57832;SDS011;43667;53.036;6.740;2024-02-26T06:42:00;5.72;;;5.10;;
57832;SDS011;43667;53.036;6.740;2024-02-26T06:44:27;6.30;;;5.28;;
57832;SDS011;43667;53.036;6.740;2024-02-26T06:46:59;8.30;;;5.43;;
57832;SDS011;43667;53.036;6.740;2024-02-26T06:49:25;6.68;;;5.55;;
57832;SDS011;43667;53.036;6.740;2024-02-26T06:51:52;6.25;;;5.43;;
57832;SDS011;43667;53.036;6.740;2024-02-26T06:54:18;6.88;;;5.45;;
57832;SDS011;43667;53.036;6.740;2024-02-26T06:56:44;6.38;;;5.68;;
57832;SDS011;43667;53.036;6.740;2024-02-26T06:59:10;5.97;;;5.38;;
57832;SDS011;43667;53.036;6.740;2024-02-26T07:01:36;8.13;;;5.30;;
57832;SDS011;43667;53.036;6.740;2024-02-26T07:04:02;8.07;;;5.90;;
57832;SDS011;43667;53.036;6.740;2024-02-26T07:06:28;6.13;;;5.53;;
57832;SDS011;43667;53.036;6.740;2024-02-26T07:08:54;11.90;;;6.60;;
57832;SDS011;43667;53.036;6.740;2024-02-26T07:11:21;8.02;;;5.75;;
57832;SDS011;43667;53.036;6.740;2024-02-26T07:13:46;12.30;;;6.82;;
57832;SDS011;43667;53.036;6.740;2024-02-26T07:16:14;10.13;;;6.00;;
57832;SDS011;43667;53.036;6.740;2024-02-26T07:18:40;7.70;;;5.65;;
57832;SDS011;43667;53.036;6.740;2024-02-26T07:21:06;8.52;;;5.43;;
57832;SDS011;43667;53.036;6.740;2024-02-26T07:23:32;7.43;;;6.07;;
57832;SDS011;43667;53.036;6.740;2024-02-26T07:25:58;6.97;;;5.63;;
57832;SDS011;43667;53.036;6.740;2024-02-26T07:28:25;6.25;;;5.38;;
57832;SDS011;43667;53.036;6.740;2024-02-26T07:30:51;6.28;;;5.75;;
57832;SDS011;43667;53.036;6.740;2024-02-26T07:33:17;5.55;;;5.05;;
57832;SDS011;43667;53.036;6.740;2024-02-26T07:35:43;5.65;;;5.15;;
57832;SDS011;43667;53.036;6.740;2024-02-26T07:38:09;6.25;;;5.65;;
57832;SDS011;43667;53.036;6.740;2024-02-26T07:40:35;7.82;;;4.95;;
57832;SDS011;43667;53.036;6.740;2024-02-26T07:43:01;5.97;;;5.38;;
57832;SDS011;43667;53.036;6.740;2024-02-26T07:45:27;6.40;;;5.43;;
57832;SDS011;43667;53.036;6.740;2024-02-26T07:47:53;6.28;;;5.68;;
57832;SDS011;43667;53.036;6.740;2024-02-26T07:50:19;5.70;;;5.18;;
57832;SDS011;43667;53.036;6.740;2024-02-26T07:52:45;5.03;;;4.63;;
57832;SDS011;43667;53.036;6.740;2024-02-26T07:55:11;6.45;;;5.75;;
57832;SDS011;43667;53.036;6.740;2024-02-26T07:57:37;5.90;;;5.30;;
57832;SDS011;43667;53.036;6.740;2024-02-26T08:00:04;7.82;;;5.47;;
57832;SDS011;43667;53.036;6.740;2024-02-26T08:02:34;6.57;;;5.72;;
57832;SDS011;43667;53.036;6.740;2024-02-26T08:05:00;5.97;;;5.47;;
57832;SDS011;43667;53.036;6.740;2024-02-26T08:07:26;6.95;;;6.32;;
57832;SDS011;43667;53.036;6.740;2024-02-26T08:09:52;9.00;;;6.82;;
57832;SDS011;43667;53.036;6.740;2024-02-26T08:12:18;5.68;;;5.10;;
57832;SDS011;43667;53.036;6.740;2024-02-26T08:14:44;6.78;;;6.18;;
57832;SDS011;43667;53.036;6.740;2024-02-26T08:17:10;7.93;;;6.07;;
57832;SDS011;43667;53.036;6.740;2024-02-26T08:19:36;6.15;;;5.45;;
57832;SDS011;43667;53.036;6.740;2024-02-26T08:22:02;9.63;;;6.47;;
57832;SDS011;43667;53.036;6.740;2024-02-26T08:24:28;6.97;;;6.28;;
57832;SDS011;43667;53.036;6.740;2024-02-26T08:26:54;6.72;;;6.13;;
57832;SDS011;43667;53.036;6.740;2024-02-26T08:29:20;7.85;;;5.93;;
57832;SDS011;43667;53.036;6.740;2024-02-26T08:31:46;6.43;;;5.82;;
57832;SDS011;43667;53.036;6.740;2024-02-26T08:34:13;9.38;;;6.57;;
57832;SDS011;43667;53.036;6.740;2024-02-26T08:36:39;6.43;;;5.57;;
57832;SDS011;43667;53.036;6.740;2024-02-26T08:39:05;6.53;;;5.93;;
57832;SDS011;43667;53.036;6.740;2024-02-26T08:41:32;6.55;;;5.95;;
57832;SDS011;43667;53.036;6.740;2024-02-26T08:43:58;9.98;;;5.65;;
57832;SDS011;43667;53.036;6.740;2024-02-26T08:46:24;6.82;;;5.78;;
57832;SDS011;43667;53.036;6.740;2024-02-26T08:48:50;6.90;;;6.20;;
57832;SDS011;43667;53.036;6.740;2024-02-26T08:51:16;8.90;;;6.22;;
57832;SDS011;43667;53.036;6.740;2024-02-26T08:53:42;6.88;;;6.18;;
57832;SDS011;43667;53.036;6.740;2024-02-26T08:56:08;6.38;;;5.72;;
57832;SDS011;43667;53.036;6.740;2024-02-26T08:58:34;8.05;;;6.38;;
57832;SDS011;43667;53.036;6.740;2024-02-26T09:01:01;6.90;;;6.05;;
57832;SDS011;43667;53.036;6.740;2024-02-26T09:03:27;8.38;;;6.40;;
57832;SDS011;43667;53.036;6.740;2024-02-26T09:05:53;8.25;;;6.85;;
57832;SDS011;43667;53.036;6.740;2024-02-26T09:08:19;6.97;;;6.28;;
57832;SDS011;43667;53.036;6.740;2024-02-26T09:10:45;7.10;;;6.38;;
57832;SDS011;43667;53.036;6.740;2024-02-26T09:13:11;7.53;;;6.10;;
57832;SDS011;43667;53.036;6.740;2024-02-26T09:15:37;7.75;;;5.60;;
57832;SDS011;43667;53.036;6.740;2024-02-26T09:18:03;7.40;;;6.40;;
57832;SDS011;43667;53.036;6.740;2024-02-26T09:20:29;6.32;;;5.72;;
57832;SDS011;43667;53.036;6.740;2024-02-26T09:22:55;6.57;;;5.88;;
57832;SDS011;43667;53.036;6.740;2024-02-26T09:25:21;6.15;;;5.65;;
57832;SDS011;43667;53.036;6.740;2024-02-26T09:27:47;7.68;;;6.00;;
57832;SDS011;43667;53.036;6.740;2024-02-26T09:30:14;7.43;;;6.35;;
57832;SDS011;43667;53.036;6.740;2024-02-26T09:32:40;7.03;;;5.85;;
57832;SDS011;43667;53.036;6.740;2024-02-26T09:35:06;7.40;;;6.63;;
57832;SDS011;43667;53.036;6.740;2024-02-26T09:37:33;6.47;;;5.38;;
57832;SDS011;43667;53.036;6.740;2024-02-26T09:39:59;7.45;;;5.97;;
57832;SDS011;43667;53.036;6.740;2024-02-26T09:42:26;6.30;;;5.68;;
57832;SDS011;43667;53.036;6.740;2024-02-26T09:44:55;6.25;;;5.70;;
57832;SDS011;43667;53.036;6.740;2024-02-26T09:47:21;8.05;;;5.68;;
57832;SDS011;43667;53.036;6.740;2024-02-26T09:49:49;6.53;;;5.47;;
57832;SDS011;43667;53.036;6.740;2024-02-26T09:52:15;6.32;;;5.68;;
57832;SDS011;43667;53.036;6.740;2024-02-26T09:54:42;6.03;;;5.40;;
57832;SDS011;43667;53.036;6.740;2024-02-26T09:57:12;6.03;;;5.43;;
57832;SDS011;43667;53.036;6.740;2024-02-26T09:59:41;6.78;;;6.03;;
57832;SDS011;43667;53.036;6.740;2024-02-26T10:02:14;6.88;;;5.57;;
57832;SDS011;43667;53.036;6.740;2024-02-26T10:04:41;7.03;;;5.18;;
57832;SDS011;43667;53.036;6.740;2024-02-26T10:07:11;5.32;;;4.82;;
57832;SDS011;43667;53.036;6.740;2024-02-26T10:09:38;6.78;;;5.00;;
57832;SDS011;43667;53.036;6.740;2024-02-26T10:12:04;5.00;;;4.50;;
57832;SDS011;43667;53.036;6.740;2024-02-26T10:14:30;5.60;;;5.07;;
57832;SDS011;43667;53.036;6.740;2024-02-26T10:16:56;6.25;;;5.20;;
57832;SDS011;43667;53.036;6.740;2024-02-26T10:19:26;5.55;;;4.75;;
57832;SDS011;43667;53.036;6.740;2024-02-26T10:21:55;7.38;;;5.13;;
57832;SDS011;43667;53.036;6.740;2024-02-26T10:24:22;6.43;;;4.80;;
57832;SDS011;43667;53.036;6.740;2024-02-26T10:26:48;6.32;;;4.63;;
57832;SDS011;43667;53.036;6.740;2024-02-26T10:29:14;5.97;;;4.85;;
57832;SDS011;43667;53.036;6.740;2024-02-26T10:31:43;5.82;;;4.88;;
57832;SDS011;43667;53.036;6.740;2024-02-26T10:34:10;5.00;;;4.32;;
57832;SDS011;43667;53.036;6.740;2024-02-26T10:36:36;4.80;;;4.40;;
57832;SDS011;43667;53.036;6.740;2024-02-26T10:39:06;4.80;;;4.32;;
57832;SDS011;43667;53.036;6.740;2024-02-26T10:41:35;5.07;;;4.18;;
57832;SDS011;43667;53.036;6.740;2024-02-26T10:44:01;4.50;;;4.07;;
57832;SDS011;43667;53.036;6.740;2024-02-26T10:46:28;5.50;;;4.53;;
57832;SDS011;43667;53.036;6.740;2024-02-26T10:48:54;4.22;;;3.83;;
57832;SDS011;43667;53.036;6.740;2024-02-26T10:51:26;4.65;;;3.92;;
57832;SDS011;43667;53.036;6.740;2024-02-26T10:53:56;4.20;;;3.38;;
57832;SDS011;43667;53.036;6.740;2024-02-26T10:56:30;4.28;;;3.88;;
57832;SDS011;43667;53.036;6.740;2024-02-26T10:58:59;4.57;;;4.13;;
57832;SDS011;43667;53.036;6.740;2024-02-26T11:01:25;4.25;;;3.83;;
57832;SDS011;43667;53.036;6.740;2024-02-26T11:03:54;5.57;;;4.13;;
57832;SDS011;43667;53.036;6.740;2024-02-26T11:06:21;4.78;;;3.78;;
57832;SDS011;43667;53.036;6.740;2024-02-26T11:08:48;3.63;;;3.22;;
57832;SDS011;43667;53.036;6.740;2024-02-26T11:11:14;4.18;;;3.78;;
57832;SDS011;43667;53.036;6.740;2024-02-26T11:13:41;3.78;;;3.38;;
57832;SDS011;43667;53.036;6.740;2024-02-26T11:16:10;4.18;;;3.50;;
57832;SDS011;43667;53.036;6.740;2024-02-26T11:18:37;4.60;;;3.40;;
57832;SDS011;43667;53.036;6.740;2024-02-26T11:21:03;4.40;;;3.60;;
57832;SDS011;43667;53.036;6.740;2024-02-26T11:23:30;4.95;;;3.58;;
57832;SDS011;43667;53.036;6.740;2024-02-26T11:25:59;4.13;;;3.63;;
57832;SDS011;43667;53.036;6.740;2024-02-26T11:28:26;3.72;;;3.30;;
57832;SDS011;43667;53.036;6.740;2024-02-26T11:30:53;4.10;;;3.40;;
57832;SDS011;43667;53.036;6.740;2024-02-26T11:33:19;4.13;;;3.72;;
57832;SDS011;43667;53.036;6.740;2024-02-26T11:35:46;3.75;;;2.95;;
57832;SDS011;43667;53.036;6.740;2024-02-26T11:38:21;4.35;;;3.70;;
57832;SDS011;43667;53.036;6.740;2024-02-26T11:40:47;3.60;;;3.30;;
57832;SDS011;43667;53.036;6.740;2024-02-26T11:43:14;3.20;;;2.90;;
57832;SDS011;43667;53.036;6.740;2024-02-26T11:48:12;4.30;;;3.40;;
57832;SDS011;43667;53.036;6.740;2024-02-26T11:50:41;3.83;;;3.22;;
57832;SDS011;43667;53.036;6.740;2024-02-26T11:55:46;3.42;;;3.10;;
57832;SDS011;43667;53.036;6.740;2024-02-26T11:58:12;3.63;;;3.33;;
57832;SDS011;43667;53.036;6.740;2024-02-26T12:00:41;3.70;;;3.35;;
57832;SDS011;43667;53.036;6.740;2024-02-26T12:03:07;4.68;;;3.22;;
57832;SDS011;43667;53.036;6.740;2024-02-26T12:05:36;3.40;;;3.03;;
57832;SDS011;43667;53.036;6.740;2024-02-26T12:08:04;5.45;;;2.83;;
57832;SDS011;43667;53.036;6.740;2024-02-26T12:10:32;3.33;;;2.65;;
57832;SDS011;43667;53.036;6.740;2024-02-26T12:13:15;3.90;;;3.28;;
57832;SDS011;43667;53.036;6.740;2024-02-26T12:15:42;4.38;;;3.50;;
57832;SDS011;43667;53.036;6.740;2024-02-26T12:18:09;3.40;;;3.10;;
57832;SDS011;43667;53.036;6.740;2024-02-26T12:20:36;3.47;;;3.08;;
57832;SDS011;43667;53.036;6.740;2024-02-26T12:23:02;4.38;;;3.90;;
57832;SDS011;43667;53.036;6.740;2024-02-26T12:25:32;4.25;;;3.85;;
57832;SDS011;43667;53.036;6.740;2024-02-26T12:27:58;5.57;;;4.10;;
57832;SDS011;43667;53.036;6.740;2024-02-26T12:30:24;4.22;;;3.83;;
57832;SDS011;43667;53.036;6.740;2024-02-26T12:32:51;6.25;;;4.35;;
57832;SDS011;43667;53.036;6.740;2024-02-26T12:35:21;5.43;;;4.70;;
57832;SDS011;43667;53.036;6.740;2024-02-26T12:37:48;7.32;;;5.70;;
57832;SDS011;43667;53.036;6.740;2024-02-26T12:40:14;6.38;;;5.45;;
57832;SDS011;43667;53.036;6.740;2024-02-26T12:42:40;7.97;;;5.45;;
57832;SDS011;43667;53.036;6.740;2024-02-26T12:45:07;6.22;;;5.20;;
57832;SDS011;43667;53.036;6.740;2024-02-26T12:47:43;7.68;;;5.65;;
57832;SDS011;43667;53.036;6.740;2024-02-26T12:50:14;8.15;;;5.85;;
57832;SDS011;43667;53.036;6.740;2024-02-26T12:52:42;6.55;;;5.82;;
57832;SDS011;43667;53.036;6.740;2024-02-26T12:55:08;7.25;;;5.60;;
57832;SDS011;43667;53.036;6.740;2024-02-26T12:57:38;7.10;;;6.40;;
57832;SDS011;43667;53.036;6.740;2024-02-26T13:00:04;7.25;;;6.22;;
57832;SDS011;43667;53.036;6.740;2024-02-26T13:02:32;7.15;;;6.18;;
57832;SDS011;43667;53.036;6.740;2024-02-26T13:04:58;6.75;;;5.97;;
57832;SDS011;43667;53.036;6.740;2024-02-26T13:07:26;7.30;;;6.18;;
57832;SDS011;43667;53.036;6.740;2024-02-26T13:09:52;8.07;;;7.28;;
57832;SDS011;43667;53.036;6.740;2024-02-26T13:12:18;8.43;;;7.20;;
57832;SDS011;43667;53.036;6.740;2024-02-26T13:14:44;7.65;;;6.85;;
57832;SDS011;43667;53.036;6.740;2024-02-26T13:17:10;8.02;;;7.22;;
57832;SDS011;43667;53.036;6.740;2024-02-26T13:19:36;7.30;;;6.15;;
57832;SDS011;43667;53.036;6.740;2024-02-26T13:22:03;7.30;;;6.60;;
57832;SDS011;43667;53.036;6.740;2024-02-26T13:24:31;8.98;;;6.95;;
57832;SDS011;43667;53.036;6.740;2024-02-26T13:26:57;7.72;;;6.75;;
57832;SDS011;43667;53.036;6.740;2024-02-26T13:29:23;7.85;;;7.05;;
57832;SDS011;43667;53.036;6.740;2024-02-26T13:31:58;8.98;;;6.38;;
57832;SDS011;43667;53.036;6.740;2024-02-26T13:34:28;7.87;;;6.23;;
57832;SDS011;43667;53.036;6.740;2024-02-26T13:36:56;8.45;;;6.82;;
57832;SDS011;43667;53.036;6.740;2024-02-26T13:39:22;8.27;;;7.47;;
57832;SDS011;43667;53.036;6.740;2024-02-26T13:41:49;8.35;;;7.53;;
57832;SDS011;43667;53.036;6.740;2024-02-26T13:44:15;8.00;;;6.78;;
57832;SDS011;43667;53.036;6.740;2024-02-26T13:46:41;9.32;;;7.95;;
57832;SDS011;43667;53.036;6.740;2024-02-26T13:49:08;10.35;;;8.25;;
57832;SDS011;43667;53.036;6.740;2024-02-26T13:51:35;9.63;;;7.28;;
57832;SDS011;43667;53.036;6.740;2024-02-26T13:54:02;8.93;;;7.45;;
57832;SDS011;43667;53.036;6.740;2024-02-26T13:56:28;9.48;;;8.48;;
57832;SDS011;43667;53.036;6.740;2024-02-26T13:58:55;10.45;;;7.47;;
57832;SDS011;43667;53.036;6.740;2024-02-26T14:01:21;9.77;;;7.70;;
57832;SDS011;43667;53.036;6.740;2024-02-26T14:03:47;10.82;;;8.40;;
57832;SDS011;43667;53.036;6.740;2024-02-26T14:06:13;9.82;;;8.07;;
57832;SDS011;43667;53.036;6.740;2024-02-26T14:08:39;10.13;;;9.07;;
57832;SDS011;43667;53.036;6.740;2024-02-26T14:11:05;10.43;;;9.23;;
57832;SDS011;43667;53.036;6.740;2024-02-26T14:13:31;10.82;;;8.70;;
57832;SDS011;43667;53.036;6.740;2024-02-26T14:15:58;11.52;;;9.50;;
57832;SDS011;43667;53.036;6.740;2024-02-26T14:18:24;13.02;;;9.73;;
57832;SDS011;43667;53.036;6.740;2024-02-26T14:20:50;11.23;;;9.73;;
57832;SDS011;43667;53.036;6.740;2024-02-26T14:23:16;11.77;;;9.45;;
57832;SDS011;43667;53.036;6.740;2024-02-26T14:25:42;13.10;;;10.85;;
57832;SDS011;43667;53.036;6.740;2024-02-26T14:28:08;11.73;;;10.38;;
57832;SDS011;43667;53.036;6.740;2024-02-26T14:30:34;12.65;;;10.45;;
57832;SDS011;43667;53.036;6.740;2024-02-26T14:33:00;13.02;;;10.75;;
57832;SDS011;43667;53.036;6.740;2024-02-26T14:35:26;12.45;;;10.50;;
57832;SDS011;43667;53.036;6.740;2024-02-26T14:37:52;11.80;;;10.55;;
57832;SDS011;43667;53.036;6.740;2024-02-26T14:40:20;13.10;;;10.15;;